CheckWX is a tool to help pilots better visualize weather data.  It is not intended as a substitute for an official pre-flight weather briefing.

00:31:08 UTC

EGPN METAR
Dundee Airport
Dundee, United Kingdom
Current

9 hours ago

EGPN 161550Z 00000KT 9999 -RA SCT020 SCT040 05/04 Q1008
Observed
Nov-16 @ 15:50 UTC
Visibility
10,000+ meters
Flight Rules
VFR
Conditions
Light Rain
Cloud Levels
  • Scattered at 2,000' AGL
  • Scattered at 4,000' AGL
Temperature
C / 41°F
Dewpoint
C / 39°F
Humidity
93%
Altimeter
29.76" Hg
Pressure
1007.92 hPa
Previous

9 hours ago

EGPN 161520Z 29002KT 9999 -RA SCT020 SCT040 06/05 Q1008
Observed
Nov-16 @ 15:20 UTC
Wind
  • 290° at 2 KTS
Visibility
10,000+ meters
Flight Rules
VFR
Conditions
Light Rain
Cloud Levels
  • Scattered at 2,000' AGL
  • Scattered at 4,000' AGL
Temperature
C / 43°F
Dewpoint
C / 41°F
Humidity
93%
Altimeter
29.76" Hg
Pressure
1007.92 hPa
Previous

10 hours ago

EGPN 161450Z 00000KT 9999 FEW020 06/04 Q1008
Observed
Nov-16 @ 14:50 UTC
Visibility
10,000+ meters
Flight Rules
VFR
Cloud Levels
  • Few at 2,000' AGL
Temperature
C / 43°F
Dewpoint
C / 39°F
Humidity
87%
Altimeter
29.76" Hg
Pressure
1007.92 hPa